Time;durP1;ratioP1;P1;durP2;ratioP2;P2;SDS_P1;SDS_P2;PMS_P1;PMS_P2;Temp;Humidity;BMP_temperature;BMP_pressure;BME280_temperature;BME280_humidity;BME280_pressure;Samples;Min_cycle;Max_cycle;Signal;HPM_P1;HPM_P2
2022/04/20 00:00:52;;;;;;;4.07;2.40;;;;;;;;;;5023789;28;20048;-62
2022/04/20 00:03:18;;;;;;;3.72;2.10;;;;;;;;;;5021293;28;20030;-59
2022/04/20 00:05:44;;;;;;;5.53;2.15;;;;;;;;;;5021858;28;20037;-59
2022/04/20 00:08:10;;;;;;;5.68;2.17;;;;;;;;;;5022101;28;20053;-60
2022/04/20 00:10:36;;;;;;;4.25;2.35;;;;;;;;;;5023038;28;20022;-62
2022/04/20 00:13:02;;;;;;;6.82;2.17;;;;;;;;;;5028446;28;20781;-59
2022/04/20 00:15:28;;;;;;;2.80;1.80;;;;;;;;;;5024842;28;20025;-60
2022/04/20 00:17:54;;;;;;;3.03;2.17;;;;;;;;;;5026123;28;20489;-61
2022/04/20 00:20:20;;;;;;;3.33;2.25;;;;;;;;;;5026619;28;20341;-60
2022/04/20 00:22:46;;;;;;;4.85;2.25;;;;;;;;;;5025681;28;20025;-61
2022/04/20 00:25:12;;;;;;;3.22;2.20;;;;;;;;;;5024792;28;20061;-62
2022/04/20 00:27:38;;;;;;;3.85;2.30;;;;;;;;;;5028092;28;20039;-62
2022/04/20 00:30:05;;;;;;;3.63;2.30;;;;;;;;;;5025415;28;20029;-61
2022/04/20 00:32:31;;;;;;;3.75;2.60;;;;;;;;;;5025296;28;20121;-59
2022/04/20 00:34:57;;;;;;;3.65;2.10;;;;;;;;;;5035056;28;20528;-61
2022/04/20 00:37:23;;;;;;;4.35;2.38;;;;;;;;;;5026690;28;20028;-62
2022/04/20 00:39:49;;;;;;;3.38;1.90;;;;;;;;;;5030647;28;20061;-60
2022/04/20 00:42:15;;;;;;;3.20;2.05;;;;;;;;;;5025482;28;20021;-59
2022/04/20 00:44:41;;;;;;;3.30;2.22;;;;;;;;;;5031534;28;20030;-61
2022/04/20 00:47:08;;;;;;;3.88;2.10;;;;;;;;;;5024415;28;20029;-61
2022/04/20 00:49:37;;;;;;;4.85;2.13;;;;;;;;;;5029824;28;20124;-60
2022/04/20 00:52:04;;;;;;;3.00;2.15;;;;;;;;;;5025384;28;20022;-61
2022/04/20 00:54:30;;;;;;;4.05;2.13;;;;;;;;;;5026791;28;20029;-61
2022/04/20 00:56:56;;;;;;;3.58;2.15;;;;;;;;;;5029589;28;20032;-61
2022/04/20 00:59:23;;;;;;;3.10;2.15;;;;;;;;;;5025394;28;20029;-57
2022/04/20 01:01:50;;;;;;;4.25;2.10;;;;;;;;;;5021984;28;20025;-59
2022/04/20 01:04:17;;;;;;;4.30;2.13;;;;;;;;;;5025177;28;20586;-59
2022/04/20 01:06:43;;;;;;;2.67;2.03;;;;;;;;;;5026336;28;20025;-62
2022/04/20 01:09:09;;;;;;;2.97;2.15;;;;;;;;;;5024551;28;20068;-62
2022/04/20 01:11:35;;;;;;;2.88;1.95;;;;;;;;;;5021982;28;20037;-62
2022/04/20 01:14:01;;;;;;;2.85;2.30;;;;;;;;;;5024788;28;20060;-61
2022/04/20 01:16:27;;;;;;;4.13;2.13;;;;;;;;;;5025334;28;20100;-62
2022/04/20 01:18:53;;;;;;;3.85;2.28;;;;;;;;;;5026135;28;20419;-59
2022/04/20 01:21:20;;;;;;;4.97;2.10;;;;;;;;;;5023895;28;20025;-60
2022/04/20 01:23:46;;;;;;;4.30;2.20;;;;;;;;;;5026106;28;20115;-61
2022/04/20 01:26:12;;;;;;;3.25;2.13;;;;;;;;;;5021450;28;20056;-59
2022/04/20 01:28:41;;;;;;;3.45;2.10;;;;;;;;;;5027939;28;20088;-62
2022/04/20 01:31:08;;;;;;;3.20;2.03;;;;;;;;;;5023684;28;20034;-61
2022/04/20 01:33:34;;;;;;;5.65;2.30;;;;;;;;;;5024519;28;20079;-60
2022/04/20 01:36:00;;;;;;;4.78;2.45;;;;;;;;;;5024314;28;20030;-60
2022/04/20 01:38:27;;;;;;;6.97;2.67;;;;;;;;;;5026396;28;20045;-61
2022/04/20 01:40:53;;;;;;;5.95;2.50;;;;;;;;;;5026196;28;20029;-62
2022/04/20 01:43:19;;;;;;;4.70;2.78;;;;;;;;;;5023815;28;20040;-60
2022/04/20 01:45:45;;;;;;;5.20;3.00;;;;;;;;;;5028372;28;20029;-62
2022/04/20 01:48:11;;;;;;;5.32;3.15;;;;;;;;;;5024171;28;20493;-62
2022/04/20 01:51:46;;;;;;;5.88;2.83;;;;;;;;;;5026065;28;20033;-60
2022/04/20 01:53:23;;;;;;;5.43;3.10;;;;;;;;;;5019396;28;20636;-59
2022/04/20 01:55:49;;;;;;;3.15;2.55;;;;;;;;;;5024224;28;20045;-58
2022/04/20 01:58:15;;;;;;;6.97;3.05;;;;;;;;;;5024266;28;20136;-61
2022/04/20 02:00:41;;;;;;;6.75;3.10;;;;;;;;;;5023682;28;20028;-61
2022/04/20 02:03:07;;;;;;;4.78;2.95;;;;;;;;;;5028193;28;20637;-59
2022/04/20 02:05:33;;;;;;;5.85;3.17;;;;;;;;;;5023803;28;20033;-60
2022/04/20 02:07:59;;;;;;;7.75;3.10;;;;;;;;;;5022532;28;20536;-63
2022/04/20 02:10:25;;;;;;;5.07;3.10;;;;;;;;;;5024688;28;20739;-60
2022/04/20 02:12:51;;;;;;;4.97;3.17;;;;;;;;;;5023839;28;20122;-61
2022/04/20 02:15:17;;;;;;;5.43;3.33;;;;;;;;;;5017547;28;20517;-61
2022/04/20 02:17:43;;;;;;;6.20;3.25;;;;;;;;;;5015901;28;20565;-62
2022/04/20 02:20:10;;;;;;;5.30;3.22;;;;;;;;;;5025025;28;20028;-60
2022/04/20 02:22:36;;;;;;;7.13;3.20;;;;;;;;;;5021731;28;20029;-62
2022/04/20 02:25:03;;;;;;;6.28;3.22;;;;;;;;;;5019027;28;20042;-59
2022/04/20 02:27:29;;;;;;;5.05;3.30;;;;;;;;;;5022534;28;20544;-61
2022/04/20 02:29:55;;;;;;;5.57;3.10;;;;;;;;;;5023927;28;20515;-61
2022/04/20 02:32:24;;;;;;;5.70;3.55;;;;;;;;;;5022624;28;20092;-59
2022/04/20 02:34:50;;;;;;;5.93;3.10;;;;;;;;;;5020220;28;20029;-58
2022/04/20 02:37:16;;;;;;;7.05;3.00;;;;;;;;;;5025518;28;20026;-59
2022/04/20 02:39:43;;;;;;;4.50;3.00;;;;;;;;;;5023367;28;20075;-62
2022/04/20 02:42:10;;;;;;;4.13;2.63;;;;;;;;;;5026546;28;20037;-59
2022/04/20 02:44:36;;;;;;;6.05;3.20;;;;;;;;;;5037385;28;20392;-60
2022/04/20 02:47:03;;;;;;;9.95;3.10;;;;;;;;;;5023081;28;20032;-60
2022/04/20 02:49:30;;;;;;;6.20;3.22;;;;;;;;;;5022439;28;20025;-59
2022/04/20 02:51:56;;;;;;;6.43;3.08;;;;;;;;;;5025500;28;20056;-60
2022/04/20 02:54:22;;;;;;;5.72;3.20;;;;;;;;;;5022733;28;20025;-59
2022/04/20 02:56:48;;;;;;;6.30;3.58;;;;;;;;;;5019957;28;20059;-57
2022/04/20 02:59:14;;;;;;;7.95;3.33;;;;;;;;;;5026525;28;20021;-62
2022/04/20 03:01:40;;;;;;;7.78;3.45;;;;;;;;;;5022666;28;20036;-62
2022/04/20 03:04:06;;;;;;;4.95;3.25;;;;;;;;;;5028302;28;20029;-62
2022/04/20 03:06:32;;;;;;;5.70;3.22;;;;;;;;;;5023815;28;20609;-62
2022/04/20 03:08:58;;;;;;;6.47;3.60;;;;;;;;;;5021830;28;20234;-62
2022/04/20 03:11:24;;;;;;;15.20;10.70;;;;;;;;;;5020370;28;20722;-62
2022/04/20 03:13:50;;;;;;;7.78;5.10;;;;;;;;;;5022804;28;20452;-62
2022/04/20 03:16:16;;;;;;;8.40;4.35;;;;;;;;;;5023989;28;20076;-60
2022/04/20 03:18:42;;;;;;;6.75;4.03;;;;;;;;;;5024905;28;20029;-60
2022/04/20 03:21:08;;;;;;;5.85;3.90;;;;;;;;;;5022042;28;20056;-59
2022/04/20 03:23:34;;;;;;;14.60;4.32;;;;;;;;;;5025674;28;20136;-60
2022/04/20 03:26:00;;;;;;;7.43;4.18;;;;;;;;;;5017636;28;20265;-62
2022/04/20 03:28:26;;;;;;;6.57;4.25;;;;;;;;;;5023092;28;20028;-62
2022/04/20 03:30:52;;;;;;;7.10;3.65;;;;;;;;;;5023240;28;20389;-58
2022/04/20 03:33:18;;;;;;;9.55;4.10;;;;;;;;;;5019923;28;20030;-60
2022/04/20 03:35:44;;;;;;;5.65;3.67;;;;;;;;;;5021378;28;20067;-61
2022/04/20 03:38:11;;;;;;;5.80;3.83;;;;;;;;;;5037703;28;20128;-62
2022/04/20 03:40:37;;;;;;;7.25;3.75;;;;;;;;;;5022131;28;20698;-60
2022/04/20 03:43:03;;;;;;;9.75;3.72;;;;;;;;;;5021943;28;20511;-60
2022/04/20 03:45:29;;;;;;;4.93;3.45;;;;;;;;;;5027305;28;20033;-59
2022/04/20 03:47:55;;;;;;;7.00;4.07;;;;;;;;;;5022038;28;20534;-59
2022/04/20 03:50:21;;;;;;;7.57;3.88;;;;;;;;;;5037198;28;20539;-62
2022/04/20 03:52:47;;;;;;;7.70;3.47;;;;;;;;;;5025276;28;20370;-60
2022/04/20 03:55:13;;;;;;;4.90;3.30;;;;;;;;;;5021101;28;20028;-60
2022/04/20 03:57:39;;;;;;;6.60;3.50;;;;;;;;;;5023143;28;20021;-62
2022/04/20 04:00:06;;;;;;;6.15;3.20;;;;;;;;;;5022493;28;20245;-61
2022/04/20 04:02:32;;;;;;;6.70;3.45;;;;;;;;;;5021435;28;20040;-61
2022/04/20 04:04:58;;;;;;;7.22;4.03;;;;;;;;;;5028674;28;20484;-59
2022/04/20 04:07:24;;;;;;;7.85;4.82;;;;;;;;;;5020320;28;20040;-62
2022/04/20 04:09:50;;;;;;;9.30;4.80;;;;;;;;;;5021940;28;20290;-62
2022/04/20 04:12:16;;;;;;;8.35;4.63;;;;;;;;;;5018770;28;20106;-60
2022/04/20 04:14:42;;;;;;;7.75;4.78;;;;;;;;;;5038898;28;20033;-59
2022/04/20 04:17:09;;;;;;;7.68;4.43;;;;;;;;;;5021600;28;20034;-62
2022/04/20 04:19:35;;;;;;;9.10;4.38;;;;;;;;;;5024944;28;20437;-62
2022/04/20 04:22:02;;;;;;;11.40;5.53;;;;;;;;;;5021922;28;20018;-62
2022/04/20 04:24:34;;;;;;;12.73;5.43;;;;;;;;;;5019356;28;20101;-59
2022/04/20 04:27:00;;;;;;;15.02;5.40;;;;;;;;;;5015384;28;20045;-61
2022/04/20 04:29:27;;;;;;;10.52;5.47;;;;;;;;;;5023917;28;20033;-57
2022/04/20 04:31:53;;;;;;;10.23;5.47;;;;;;;;;;5021782;28;20570;-60
2022/04/20 04:34:19;;;;;;;9.27;4.88;;;;;;;;;;5024170;28;20029;-60
2022/04/20 04:36:45;;;;;;;13.15;5.40;;;;;;;;;;5024764;28;20112;-59
2022/04/20 04:39:11;;;;;;;8.95;5.00;;;;;;;;;;5021651;28;20296;-60
2022/04/20 04:41:37;;;;;;;11.63;6.68;;;;;;;;;;5026272;28;20516;-59
2022/04/20 04:44:03;;;;;;;14.15;5.75;;;;;;;;;;5021658;28;20037;-59
2022/04/20 04:49:14;;;;;;;10.40;5.55;;;;;;;;;;5015365;28;20448;-62
2022/04/20 04:51:41;;;;;;;8.48;5.50;;;;;;;;;;5025445;28;20029;-62
2022/04/20 04:54:07;;;;;;;10.23;5.40;;;;;;;;;;5021553;28;20363;-59
2022/04/20 04:56:33;;;;;;;9.15;5.28;;;;;;;;;;5023000;28;20404;-60
2022/04/20 04:58:59;;;;;;;10.88;5.50;;;;;;;;;;5023775;28;20494;-62
2022/04/20 05:01:25;;;;;;;10.15;5.15;;;;;;;;;;5023973;28;20033;-62
2022/04/20 05:03:53;;;;;;;9.02;4.88;;;;;;;;;;5031895;28;20025;-63
2022/04/20 05:06:19;;;;;;;10.32;4.90;;;;;;;;;;5026959;28;20091;-61
2022/04/20 05:08:46;;;;;;;11.20;5.13;;;;;;;;;;5024938;28;20025;-62
2022/04/20 05:11:12;;;;;;;9.20;4.88;;;;;;;;;;5024757;28;20033;-60
2022/04/20 05:13:38;;;;;;;9.32;5.07;;;;;;;;;;5024582;28;20405;-62
2022/04/20 05:16:04;;;;;;;10.75;5.75;;;;;;;;;;5027436;28;20024;-61
2022/04/20 05:18:30;;;;;;;8.32;4.93;;;;;;;;;;5024993;28;20228;-61
2022/04/20 05:20:56;;;;;;;8.20;5.03;;;;;;;;;;5018506;28;20112;-62
2022/04/20 05:23:22;;;;;;;5.63;4.07;;;;;;;;;;5024072;28;20127;-62
2022/04/20 05:25:48;;;;;;;8.05;4.75;;;;;;;;;;5024491;28;20033;-63
2022/04/20 05:28:14;;;;;;;8.63;4.38;;;;;;;;;;5029631;28;20025;-62
2022/04/20 05:30:41;;;;;;;8.65;4.50;;;;;;;;;;5024397;28;20037;-62
2022/04/20 05:33:06;;;;;;;11.50;5.03;;;;;;;;;;5023578;28;20030;-63
2022/04/20 05:35:33;;;;;;;8.35;4.60;;;;;;;;;;5019923;28;20049;-61
2022/04/20 05:43:28;;;;;;;10.25;4.32;;;;;;;;;;5017478;28;20166;-61
2022/04/20 05:45:54;;;;;;;5.95;4.10;;;;;;;;;;5024364;28;20025;-62
2022/04/20 05:48:20;;;;;;;11.38;4.57;;;;;;;;;;5024564;28;20030;-62
2022/04/20 05:50:46;;;;;;;8.60;4.53;;;;;;;;;;5024507;28;20492;-62
2022/04/20 05:53:12;;;;;;;9.98;4.28;;;;;;;;;;5025225;28;20048;-60
2022/04/20 05:55:38;;;;;;;8.93;4.40;;;;;;;;;;5021987;28;20029;-61
2022/04/20 05:58:04;;;;;;;9.02;4.88;;;;;;;;;;5026597;28;20041;-60
2022/04/20 06:00:31;;;;;;;10.43;4.20;;;;;;;;;;5024017;28;20374;-59
2022/04/20 06:02:57;;;;;;;10.93;5.25;;;;;;;;;;5023985;28;20029;-60
2022/04/20 06:05:23;;;;;;;18.83;5.38;;;;;;;;;;5021872;28;20473;-62
2022/04/20 06:07:49;;;;;;;9.25;4.65;;;;;;;;;;5024964;28;20059;-59
2022/04/20 06:10:15;;;;;;;9.52;4.82;;;;;;;;;;5021370;28;20025;-61
2022/04/20 06:12:41;;;;;;;7.50;4.57;;;;;;;;;;5025296;28;20531;-62
2022/04/20 06:15:08;;;;;;;13.25;4.72;;;;;;;;;;5026962;28;20493;-61
2022/04/20 06:17:34;;;;;;;6.22;4.10;;;;;;;;;;5023261;28;20512;-61
2022/04/20 06:20:00;;;;;;;7.75;4.88;;;;;;;;;;5027289;28;20033;-59
2022/04/20 06:22:26;;;;;;;10.00;4.57;;;;;;;;;;5024083;28;20273;-59
2022/04/20 06:24:52;;;;;;;11.52;4.70;;;;;;;;;;5024132;28;20026;-60
2022/04/20 06:27:18;;;;;;;10.90;4.47;;;;;;;;;;5028907;28;20100;-61
2022/04/20 06:29:44;;;;;;;8.60;4.30;;;;;;;;;;5023384;28;20087;-59
2022/04/20 06:32:10;;;;;;;9.68;4.93;;;;;;;;;;5022796;28;20034;-63
2022/04/20 06:34:36;;;;;;;9.77;4.68;;;;;;;;;;5027051;28;20030;-62
2022/04/20 06:37:05;;;;;;;9.43;4.68;;;;;;;;;;5023284;28;20029;-62
2022/04/20 06:39:31;;;;;;;9.27;5.10;;;;;;;;;;5024932;28;20044;-62
2022/04/20 06:41:57;;;;;;;11.60;5.10;;;;;;;;;;5023301;28;20494;-61
2022/04/20 06:44:23;;;;;;;11.52;5.07;;;;;;;;;;5023175;28;20117;-61
2022/04/20 06:46:49;;;;;;;8.10;4.55;;;;;;;;;;5017746;28;20440;-59
2022/04/20 06:49:16;;;;;;;8.88;4.15;;;;;;;;;;5022642;28;20138;-60
2022/04/20 06:59:56;;;;;;;10.68;4.80;;;;;;;;;;5022433;28;20518;-61
2022/04/20 07:02:22;;;;;;;7.63;4.40;;;;;;;;;;5018860;28;20033;-60
2022/04/20 07:04:48;;;;;;;8.05;4.55;;;;;;;;;;5026564;28;20582;-59
2022/04/20 07:07:14;;;;;;;8.35;4.13;;;;;;;;;;5021237;28;20025;-62
2022/04/20 07:09:40;;;;;;;7.15;4.07;;;;;;;;;;5021496;28;20048;-59
2022/04/20 07:12:06;;;;;;;8.73;4.55;;;;;;;;;;5020869;28;20028;-61
2022/04/20 07:14:32;;;;;;;9.98;3.80;;;;;;;;;;5022540;28;20069;-62
2022/04/20 07:16:58;;;;;;;6.63;4.05;;;;;;;;;;5020958;28;20064;-59
2022/04/20 07:19:24;;;;;;;5.38;3.33;;;;;;;;;;5021409;28;20018;-59
2022/04/20 07:21:50;;;;;;;7.30;3.65;;;;;;;;;;5020807;28;20036;-62
2022/04/20 07:24:15;;;;;;;9.57;3.80;;;;;;;;;;5025159;28;20333;-61
2022/04/20 07:26:41;;;;;;;8.45;3.83;;;;;;;;;;5021520;28;20063;-60
2022/04/20 07:29:07;;;;;;;7.45;4.15;;;;;;;;;;5025861;28;20520;-60
2022/04/20 07:31:33;;;;;;;5.68;3.08;;;;;;;;;;5021922;28;20044;-61
2022/04/20 07:33:59;;;;;;;6.50;2.58;;;;;;;;;;5020473;28;20389;-62
2022/04/20 07:36:25;;;;;;;4.53;3.08;;;;;;;;;;5021885;28;20025;-62
2022/04/20 07:38:51;;;;;;;4.72;2.88;;;;;;;;;;5026631;28;20022;-61
2022/04/20 07:41:17;;;;;;;7.00;3.10;;;;;;;;;;5028374;28;20644;-60
2022/04/20 07:43:43;;;;;;;4.55;2.90;;;;;;;;;;5021097;28;20040;-59
2022/04/20 07:46:12;;;;;;;5.97;2.80;;;;;;;;;;5021871;28;20556;-62
2022/04/20 07:48:38;;;;;;;5.38;2.75;;;;;;;;;;5023036;28;20104;-60
2022/04/20 07:51:04;;;;;;;7.20;2.60;;;;;;;;;;5021435;28;20632;-60
2022/04/20 07:53:30;;;;;;;4.18;2.50;;;;;;;;;;5036726;28;20443;-59
2022/04/20 07:55:56;;;;;;;7.10;2.70;;;;;;;;;;5017816;28;20032;-62
2022/04/20 07:58:22;;;;;;;9.23;2.83;;;;;;;;;;5024972;28;20026;-59
2022/04/20 08:00:51;;;;;;;5.03;2.70;;;;;;;;;;5021046;28;20031;-61
2022/04/20 08:03:18;;;;;;;5.20;2.45;;;;;;;;;;5020260;28;20028;-60
2022/04/20 08:05:52;;;;;;;4.18;2.30;;;;;;;;;;5020602;28;20087;-62
2022/04/20 08:08:18;;;;;;;5.45;2.53;;;;;;;;;;5017914;28;20048;-61
2022/04/20 08:10:44;;;;;;;7.07;2.55;;;;;;;;;;5013564;28;20635;-60
2022/04/20 08:15:55;;;;;;;5.45;2.80;;;;;;;;;;5017434;28;20040;-61
2022/04/20 08:18:21;;;;;;;5.28;2.70;;;;;;;;;;5020896;28;20480;-60
2022/04/20 08:20:47;;;;;;;6.85;3.13;;;;;;;;;;5021601;28;20551;-61
2022/04/20 08:23:14;;;;;;;5.60;2.83;;;;;;;;;;5027932;28;20039;-61
2022/04/20 08:25:40;;;;;;;9.35;2.60;;;;;;;;;;5019982;28;20048;-61
2022/04/20 08:28:06;;;;;;;4.65;2.60;;;;;;;;;;5020662;28;20025;-60
2022/04/20 08:30:33;;;;;;;5.07;3.10;;;;;;;;;;5021154;28;20449;-62
2022/04/20 08:32:59;;;;;;;6.20;3.28;;;;;;;;;;5017220;28;20048;-61
2022/04/20 08:35:25;;;;;;;6.15;2.58;;;;;;;;;;5019493;28;20029;-61
2022/04/20 08:37:51;;;;;;;5.75;2.92;;;;;;;;;;5031273;28;20473;-61
2022/04/20 08:40:17;;;;;;;6.38;3.00;;;;;;;;;;5024596;28;20029;-60
2022/04/20 08:42:43;;;;;;;6.45;3.40;;;;;;;;;;5024579;28;20149;-59
2022/04/20 08:45:10;;;;;;;7.15;3.40;;;;;;;;;;5024853;28;20030;-61
2022/04/20 08:47:37;;;;;;;5.70;3.10;;;;;;;;;;5024885;28;20427;-59
2022/04/20 08:50:03;;;;;;;6.75;3.40;;;;;;;;;;5026449;28;20692;-62
2022/04/20 08:52:39;;;;;;;6.90;3.47;;;;;;;;;;5025161;28;20344;-61
2022/04/20 08:55:12;;;;;;;6.50;3.90;;;;;;;;;;5021098;28;20025;-59
2022/04/20 08:57:39;;;;;;;6.55;4.07;;;;;;;;;;5028903;28;20044;-62
2022/04/20 09:00:06;;;;;;;6.18;3.10;;;;;;;;;;5024964;28;20026;-59
2022/04/20 09:02:33;;;;;;;5.72;2.97;;;;;;;;;;5025278;28;20022;-61
2022/04/20 09:04:59;;;;;;;6.22;3.03;;;;;;;;;;5025171;28;20033;-61
2022/04/20 09:07:25;;;;;;;4.28;2.70;;;;;;;;;;5024767;28;20021;-61
2022/04/20 09:09:51;;;;;;;4.28;2.42;;;;;;;;;;5024711;28;20440;-59
2022/04/20 09:12:19;;;;;;;5.40;2.20;;;;;;;;;;5023553;28;20040;-62
2022/04/20 09:14:47;;;;;;;4.47;2.40;;;;;;;;;;5027452;28;20041;-59
2022/04/20 09:17:13;;;;;;;3.33;2.33;;;;;;;;;;5022625;28;20018;-62
2022/04/20 09:19:43;;;;;;;4.20;2.55;;;;;;;;;;5027989;28;20520;-61
2022/04/20 09:22:36;;;;;;;3.90;2.03;;;;;;;;;;5024020;28;20025;-60
2022/04/20 09:25:17;;;;;;;4.32;2.60;;;;;;;;;;5019182;28;20117;-60
2022/04/20 09:27:43;;;;;;;4.53;2.42;;;;;;;;;;5025086;28;20029;-61
2022/04/20 09:30:10;;;;;;;4.13;2.60;;;;;;;;;;5022572;28;20032;-61
2022/04/20 09:32:40;;;;;;;5.10;2.67;;;;;;;;;;5025781;28;20061;-60
2022/04/20 09:35:08;;;;;;;3.40;2.70;;;;;;;;;;5026476;28;20032;-60
2022/04/20 09:37:36;;;;;;;5.10;2.80;;;;;;;;;;5017571;28;20072;-59
2022/04/20 09:40:04;;;;;;;5.65;2.80;;;;;;;;;;5024272;28;20060;-59
2022/04/20 09:42:31;;;;;;;4.22;2.92;;;;;;;;;;5024399;28;20271;-62
2022/04/20 09:45:12;;;;;;;4.38;2.67;;;;;;;;;;5023789;28;20030;-61
2022/04/20 09:50:24;;;;;;;5.18;2.00;;;;;;;;;;5026548;28;20114;-58
2022/04/20 09:52:54;;;;;;;3.92;2.13;;;;;;;;;;5026908;28;20036;-62
2022/04/20 09:55:30;;;;;;;3.90;2.42;;;;;;;;;;5019075;28;20032;-59
2022/04/20 09:58:09;;;;;;;3.22;2.17;;;;;;;;;;5023809;28;20041;-59
2022/04/20 10:00:43;;;;;;;4.53;2.33;;;;;;;;;;5022125;28;20045;-58
2022/04/20 10:03:09;;;;;;;2.95;2.08;;;;;;;;;;5025609;28;20029;-59
2022/04/20 10:05:37;;;;;;;5.30;2.20;;;;;;;;;;5023648;28;20547;-61
2022/04/20 10:08:03;;;;;;;4.32;2.10;;;;;;;;;;5022853;28;20026;-61
2022/04/20 10:10:33;;;;;;;4.70;2.28;;;;;;;;;;5023063;28;20024;-60
2022/04/20 10:13:01;;;;;;;3.28;2.25;;;;;;;;;;5024907;28;20064;-61
2022/04/20 10:18:18;;;;;;;2.83;1.88;;;;;;;;;;5022668;28;20041;-61
2022/04/20 10:20:46;;;;;;;4.53;2.25;;;;;;;;;;5022747;28;20079;-60
2022/04/20 10:23:14;;;;;;;5.15;2.60;;;;;;;;;;5016759;28;20116;-61
2022/04/20 10:25:41;;;;;;;7.32;2.50;;;;;;;;;;5021870;28;20040;-59
2022/04/20 10:28:17;;;;;;;6.03;2.50;;;;;;;;;;5024028;28;20599;-59
2022/04/20 10:30:43;;;;;;;7.93;2.97;;;;;;;;;;5021911;28;20507;-59
2022/04/20 10:33:12;;;;;;;6.10;3.08;;;;;;;;;;5028691;28;20029;-60
2022/04/20 10:35:57;;;;;;;5.00;3.00;;;;;;;;;;5023239;28;20104;-61
2022/04/20 10:38:24;;;;;;;5.78;2.70;;;;;;;;;;5022980;28;20029;-60
2022/04/20 10:41:02;;;;;;;4.90;2.80;;;;;;;;;;5023431;28;20017;-61
2022/04/20 10:43:29;;;;;;;8.35;3.05;;;;;;;;;;5022821;28;20030;-60
2022/04/20 10:46:14;;;;;;;4.05;2.60;;;;;;;;;;5024985;28;20078;-62
2022/04/20 10:48:56;;;;;;;4.78;3.17;;;;;;;;;;5024724;28;20033;-60
2022/04/20 10:51:24;;;;;;;9.15;3.40;;;;;;;;;;5017014;28;20510;-60
2022/04/20 10:53:51;;;;;;;6.95;2.95;;;;;;;;;;5026514;28;20496;-60
2022/04/20 10:56:18;;;;;;;6.45;3.05;;;;;;;;;;5018345;28;20032;-62
2022/04/20 10:58:53;;;;;;;7.43;3.28;;;;;;;;;;5027133;28;20025;-61
2022/04/20 11:01:19;;;;;;;5.72;3.10;;;;;;;;;;5021723;28;20061;-60
2022/04/20 11:04:07;;;;;;;7.63;3.30;;;;;;;;;;5022332;28;20040;-60
2022/04/20 11:06:52;;;;;;;6.78;3.42;;;;;;;;;;5036014;28;20040;-59
2022/04/20 11:09:52;;;;;;;8.60;3.40;;;;;;;;;;5016256;28;20022;-61
2022/04/20 11:21:03;;;;;;;6.88;3.28;;;;;;;;;;5020033;28;20104;-61
2022/04/20 11:23:48;;;;;;;5.57;2.90;;;;;;;;;;5022442;28;20068;-60
2022/04/20 11:26:19;;;;;;;5.18;3.00;;;;;;;;;;5021906;28;20048;-60
2022/04/20 11:28:45;;;;;;;3.92;3.10;;;;;;;;;;5023884;28;20017;-61
2022/04/20 11:31:12;;;;;;;5.95;3.05;;;;;;;;;;5022039;28;20029;-62
2022/04/20 11:33:39;;;;;;;5.35;3.17;;;;;;;;;;5027779;28;20235;-61
2022/04/20 11:36:05;;;;;;;5.35;2.90;;;;;;;;;;5021450;28;20052;-59
2022/04/20 11:38:38;;;;;;;9.07;2.85;;;;;;;;;;5022355;28;20029;-60
2022/04/20 11:41:05;;;;;;;;;;;;;;;;;;5023743;28;20427;-60
2022/04/20 11:43:31;;;;;;;4.82;2.70;;;;;;;;;;5021922;28;19916;-62
2022/04/20 11:45:57;;;;;;;9.57;3.00;;;;;;;;;;5023899;28;20497;-61
2022/04/20 11:48:23;;;;;;;4.18;2.63;;;;;;;;;;5028346;28;20053;-61
2022/04/20 11:51:02;;;;;;;3.38;2.65;;;;;;;;;;5022352;28;20026;-61
2022/04/20 11:53:31;;;;;;;5.35;2.80;;;;;;;;;;5021142;28;20422;-59
2022/04/20 11:55:58;;;;;;;6.40;3.08;;;;;;;;;;5020681;28;20021;-60
2022/04/20 11:58:24;;;;;;;3.25;2.63;;;;;;;;;;5018538;28;20025;-60
2022/04/20 12:01:03;;;;;;;6.22;2.50;;;;;;;;;;5023886;28;20025;-61
2022/04/20 12:03:33;;;;;;;6.20;2.50;;;;;;;;;;5024959;28;20509;-60
2022/04/20 12:06:09;;;;;;;4.97;2.72;;;;;;;;;;5021448;28;20033;-61
2022/04/20 12:08:36;;;;;;;4.70;2.58;;;;;;;;;;5028742;28;20033;-61
2022/04/20 12:11:08;;;;;;;5.63;3.30;;;;;;;;;;5023748;28;20037;-60
2022/04/20 12:13:35;;;;;;;5.18;3.33;;;;;;;;;;5020274;28;20026;-60
2022/04/20 12:16:08;;;;;;;5.03;3.08;;;;;;;;;;5030254;28;20594;-59
2022/04/20 12:18:41;;;;;;;6.32;3.17;;;;;;;;;;5025247;28;20397;-60
2022/04/20 12:21:27;;;;;;;7.10;3.10;;;;;;;;;;5025691;28;20335;-61
2022/04/20 12:23:53;;;;;;;4.10;2.58;;;;;;;;;;5026894;28;20369;-61
2022/04/20 12:26:28;;;;;;;5.25;2.80;;;;;;;;;;5023221;28;20042;-59
2022/04/20 12:29:05;;;;;;;5.13;3.33;;;;;;;;;;5029523;28;20051;-58
2022/04/20 12:31:31;;;;;;;5.07;3.28;;;;;;;;;;5025082;28;20121;-61
2022/04/20 12:34:04;;;;;;;3.67;2.80;;;;;;;;;;5025473;28;20526;-60
2022/04/20 12:36:32;;;;;;;5.70;3.05;;;;;;;;;;5026297;28;20025;-61
2022/04/20 12:38:58;;;;;;;3.15;2.08;;;;;;;;;;5028790;28;20281;-61
2022/04/20 12:41:34;;;;;;;6.70;2.40;;;;;;;;;;5024277;28;20056;-59
2022/04/20 12:44:00;;;;;;;5.07;2.28;;;;;;;;;;5030958;28;20132;-60
2022/04/20 12:46:33;;;;;;;4.28;2.25;;;;;;;;;;5024712;28;20052;-57
2022/04/20 12:49:00;;;;;;;4.35;2.83;;;;;;;;;;5027496;28;20068;-60
2022/04/20 12:51:26;;;;;;;6.68;3.20;;;;;;;;;;5024007;28;20037;-60
2022/04/20 12:53:52;;;;;;;7.20;3.25;;;;;;;;;;5024883;28;20437;-60
2022/04/20 13:02:02;;;;;;;2.80;1.90;;;;;;;;;;5024295;28;20087;-60
2022/04/20 13:04:28;;;;;;;3.85;2.15;;;;;;;;;;5024630;28;20035;-57
2022/04/20 13:06:55;;;;;;;5.40;2.10;;;;;;;;;;5025308;28;20048;-60
2022/04/20 13:09:21;;;;;;;7.78;2.42;;;;;;;;;;5022671;28;20031;-61
2022/04/20 13:11:47;;;;;;;5.70;3.20;;;;;;;;;;5023193;28;20029;-61
2022/04/20 13:14:13;;;;;;;4.65;3.00;;;;;;;;;;5020889;28;20457;-60
2022/04/20 13:16:39;;;;;;;4.68;2.42;;;;;;;;;;5023177;28;20075;-59
2022/04/20 13:19:05;;;;;;;5.03;2.90;;;;;;;;;;5021889;28;20428;-59
2022/04/20 13:21:31;;;;;;;5.20;2.80;;;;;;;;;;5022634;28;20033;-61
2022/04/20 13:23:57;;;;;;;7.90;3.30;;;;;;;;;;5026056;28;20021;-60
2022/04/20 13:29:08;;;;;;;8.70;3.67;;;;;;;;;;5030595;28;20086;-61
2022/04/20 13:31:34;;;;;;;7.22;3.50;;;;;;;;;;5024680;28;20087;-61
2022/04/20 13:34:00;;;;;;;7.80;3.05;;;;;;;;;;5024882;28;20029;-61
2022/04/20 13:36:27;;;;;;;4.38;3.05;;;;;;;;;;5023394;28;20362;-60
2022/04/20 13:38:53;;;;;;;7.88;3.00;;;;;;;;;;5028189;28;20428;-61
2022/04/20 13:41:19;;;;;;;4.03;2.80;;;;;;;;;;5025306;28;20032;-60
2022/04/20 13:43:45;;;;;;;10.30;3.17;;;;;;;;;;5030505;28;20416;-61
2022/04/20 13:46:11;;;;;;;5.85;2.90;;;;;;;;;;5023302;28;20186;-59
2022/04/20 13:48:37;;;;;;;5.18;2.85;;;;;;;;;;5024669;28;20061;-61
2022/04/20 13:51:03;;;;;;;4.35;3.35;;;;;;;;;;5023904;28;20395;-60
2022/04/20 13:53:29;;;;;;;9.55;3.80;;;;;;;;;;5023907;28;20432;-58
2022/04/20 13:55:55;;;;;;;5.28;3.55;;;;;;;;;;5020263;28;20022;-60
2022/04/20 13:58:21;;;;;;;4.00;2.53;;;;;;;;;;5028768;28;20087;-60
2022/04/20 14:00:47;;;;;;;5.40;3.22;;;;;;;;;;5023413;28;20025;-61
2022/04/20 14:03:13;;;;;;;5.72;2.83;;;;;;;;;;5028054;28;20059;-59
2022/04/20 14:05:39;;;;;;;6.68;2.90;;;;;;;;;;5023444;28;20146;-61
2022/04/20 14:08:05;;;;;;;4.10;2.20;;;;;;;;;;5028779;28;20108;-61
2022/04/20 14:10:31;;;;;;;7.20;3.72;;;;;;;;;;5023707;28;20026;-59
2022/04/20 14:12:57;;;;;;;5.25;3.15;;;;;;;;;;5027144;28;20112;-59
2022/04/20 14:15:24;;;;;;;6.00;3.30;;;;;;;;;;5023530;28;20334;-62
2022/04/20 14:17:50;;;;;;;5.00;3.05;;;;;;;;;;5023198;28;20037;-61
2022/04/20 14:20:17;;;;;;;7.05;3.97;;;;;;;;;;5023900;28;20444;-61
2022/04/20 14:22:44;;;;;;;6.68;4.05;;;;;;;;;;5025488;28;20025;-61
2022/04/20 14:33:29;;;;;;;11.02;3.90;;;;;;;;;;5014822;28;20431;-60
2022/04/20 14:35:55;;;;;;;9.23;4.28;;;;;;;;;;5021537;28;20341;-61
2022/04/20 14:38:22;;;;;;;7.80;4.10;;;;;;;;;;5025224;28;20021;-60
2022/04/20 14:40:48;;;;;;;6.88;4.13;;;;;;;;;;5023051;28;20096;-60
2022/04/20 14:43:14;;;;;;;7.88;3.97;;;;;;;;;;5022768;28;20132;-61
2022/04/20 14:45:40;;;;;;;6.40;4.10;;;;;;;;;;5016371;28;20093;-60
2022/04/20 14:48:06;;;;;;;8.98;3.92;;;;;;;;;;5022827;28;20224;-60
2022/04/20 14:50:32;;;;;;;5.82;3.60;;;;;;;;;;5028075;28;20041;-61
2022/04/20 14:52:58;;;;;;;11.52;3.53;;;;;;;;;;5022085;28;20032;-59
2022/04/20 14:55:24;;;;;;;4.40;3.83;;;;;;;;;;5022641;28;20680;-59
2022/04/20 14:57:51;;;;;;;8.25;4.00;;;;;;;;;;5022220;28;20083;-58
2022/04/20 15:00:17;;;;;;;6.47;4.13;;;;;;;;;;5022358;28;20029;-60
2022/04/20 15:02:43;;;;;;;8.43;4.25;;;;;;;;;;5021274;28;20038;-61
2022/04/20 15:05:10;;;;;;;5.95;3.53;;;;;;;;;;5021867;28;20021;-61
2022/04/20 15:07:36;;;;;;;5.20;3.60;;;;;;;;;;5022231;28;20164;-59
2022/04/20 15:10:02;;;;;;;6.90;4.07;;;;;;;;;;5022402;28;20353;-60
2022/04/20 15:12:29;;;;;;;7.32;4.20;;;;;;;;;;5020319;28;20104;-61
2022/04/20 15:14:57;;;;;;;5.22;4.03;;;;;;;;;;5021880;28;20029;-62
2022/04/20 15:17:23;;;;;;;6.18;4.15;;;;;;;;;;5022068;28;20022;-60
2022/04/20 15:19:52;;;;;;;6.35;4.07;;;;;;;;;;5022884;28;20025;-59
2022/04/20 15:22:18;;;;;;;8.68;4.10;;;;;;;;;;5022058;28;20025;-59
2022/04/20 15:24:43;;;;;;;4.97;3.83;;;;;;;;;;5021702;28;20036;-59
2022/04/20 15:27:09;;;;;;;5.85;3.67;;;;;;;;;;5017945;28;20062;-61
2022/04/20 15:29:36;;;;;;;6.05;4.00;;;;;;;;;;5022154;28;20092;-61
2022/04/20 15:32:02;;;;;;;6.85;4.45;;;;;;;;;;5022349;28;20037;-58
2022/04/20 15:34:28;;;;;;;7.18;4.55;;;;;;;;;;5019069;28;20405;-60